KFAT

Fresno Yosemite International Airport

Fresno, California, USA
METAR KFAT 201953Z 12004KT 7SM BKN200 36/07 A2984 RMK AO2 SLP098 MTNS OBSC FU HZ DSNT N-E-S T03610072
Observed Flight Rules
Aug-20 @ 19:53 UTC (36 minutes ago) Visual Flight Rules
Wind Visibility Clouds
120° at 4 knots 7 miles
  • Broken at 20,000' AGL
Temperatures Readings
Current 36°C / 97°F
Dewpoint 7°C / 45°F
Humidity 17%
Altimeter 29.84" Hg
Pressure 1009.8 hPa
Elevation 104
METAR KFAT 201953Z 12004KT 7SM BKN200 36/07 A2984 RMK AO2 SLP098 MTNS OBSC FU HZ DSNT N-E-S T03610072
Observed Flight Rules
Aug-20 @ 19:53 UTC
(36 minutes ago)
VFR
Wind Visibility
120° at 4 knots 7 miles
Clouds
  • Broken at 20,000' AGL
Temperature Dewpoint
36°C / 97°F 7°C / 45°F
Humidity Altimeter Pressure
17% 29.84" Hg 1009.8 hPa